Time;durP1;ratioP1;P1;durP2;ratioP2;P2;SDS_P1;SDS_P2;PMS_P1;PMS_P2;Temp;Humidity;BMP_temperature;BMP_pressure;BME280_temperature;BME280_humidity;BME280_pressure;Samples;Min_cycle;Max_cycle;Signal;HPM_P1;HPM_P2
2023/09/07 00:01:00;;;;;;;11.68;8.60;;;435.50;2355.20;;;;;;5087868;28;20462;-58
2023/09/07 00:03:26;;;;;;;9.48;8.20;;;435.50;2355.20;;;;;;5062779;28;20079;-58
2023/09/07 00:05:52;;;;;;;12.30;8.75;;;435.50;2355.20;;;;;;5088820;28;20020;-58
2023/09/07 00:08:17;;;;;;;11.82;8.77;;;435.40;2355.20;;;;;;5088786;28;20063;-58
2023/09/07 00:10:43;;;;;;;10.65;8.52;;;435.50;2355.20;;;;;;5088792;28;20036;-58
2023/09/07 00:13:09;;;;;;;10.20;8.77;;;435.30;2355.20;;;;;;5089214;28;20436;-58
2023/09/07 00:15:38;;;;;;;11.30;8.70;;;435.30;2355.20;;;;;;5089208;28;20537;-58
2023/09/07 00:18:04;;;;;;;11.82;8.48;;;435.40;2355.20;;;;;;5088978;28;20027;-58
2023/09/07 00:20:30;;;;;;;10.43;8.27;;;435.30;2355.20;;;;;;5088585;28;20615;-58
2023/09/07 00:22:57;;;;;;;9.07;8.10;;;435.30;2355.20;;;;;;5088695;28;20115;-58
2023/09/07 00:25:22;;;;;;;12.70;8.93;;;410.50;2355.20;;;;;;5088796;28;20024;-58
2023/09/07 00:27:48;;;;;;;11.45;8.20;;;435.20;2355.20;;;;;;5088513;28;20031;-58
2023/09/07 00:30:14;;;;;;;9.40;7.70;;;435.30;2355.20;;;;;;5088807;28;20032;-59
2023/09/07 00:32:40;;;;;;;14.27;9.25;;;435.20;2355.20;;;;;;5088796;28;20055;-58
2023/09/07 00:35:06;;;;;;;14.32;7.97;;;410.50;2355.20;;;;;;5087011;28;20765;-59
2023/09/07 00:37:33;;;;;;;12.43;7.85;;;410.50;2355.20;;;;;;5088599;28;20028;-59
2023/09/07 00:39:58;;;;;;;10.57;7.50;;;435.20;2355.20;;;;;;5088013;28;20121;-59
2023/09/07 00:42:25;;;;;;;11.60;8.60;;;435.20;2355.20;;;;;;5088179;28;20060;-59
2023/09/07 00:44:51;;;;;;;11.27;8.27;;;435.20;2355.20;;;;;;5092158;28;20028;-59
2023/09/07 00:47:17;;;;;;;8.75;7.57;;;435.30;2355.20;;;;;;5092317;28;20157;-60
2023/09/07 00:49:43;;;;;;;12.52;8.73;;;435.30;2355.20;;;;;;5092654;28;20059;-58
2023/09/07 00:52:10;;;;;;;11.57;8.57;;;435.20;2355.20;;;;;;5092607;28;20012;-59
2023/09/07 00:54:38;;;;;;;13.52;8.05;;;435.20;2355.20;;;;;;5092483;28;20085;-60
2023/09/07 00:57:05;;;;;;;11.93;7.75;;;435.30;2355.20;;;;;;5092474;28;20115;-60
2023/09/07 00:59:32;;;;;;;11.18;8.43;;;435.30;2355.20;;;;;;5084373;28;20099;-59
2023/09/07 01:01:58;;;;;;;11.07;8.07;;;435.30;2355.20;;;;;;5092296;28;20032;-59
2023/09/07 01:04:23;;;;;;;10.10;8.75;;;435.20;2355.20;;;;;;5092060;28;20031;-59
2023/09/07 01:07:23;;;;;;;10.48;8.45;;;410.50;2355.20;;;;;;5092159;28;20493;-60
2023/09/07 01:09:54;;;;;;;13.82;9.02;;;410.50;2355.20;;;;;;5009523;28;20065;-60
2023/09/07 01:12:20;;;;;;;12.18;9.13;;;410.50;2355.20;;;;;;5009612;28;20050;-59
2023/09/07 01:14:46;;;;;;;11.57;8.98;;;410.20;2355.20;;;;;;5008989;28;20365;-60
2023/09/07 01:17:13;;;;;;;10.85;7.30;;;410.50;2355.20;;;;;;5009955;28;20025;-60
2023/09/07 01:19:39;;;;;;;9.95;7.97;;;410.40;2355.20;;;;;;5009224;28;20149;-60
2023/09/07 01:22:08;;;;;;;8.43;7.50;;;410.50;2355.20;;;;;;5009793;28;20061;-60
2023/09/07 01:24:37;;;;;;;9.63;8.02;;;410.40;2355.20;;;;;;5009739;28;20465;-60
2023/09/07 01:27:04;;;;;;;11.40;8.23;;;410.30;2355.20;;;;;;5009349;28;20046;-59
2023/09/07 01:29:31;;;;;;;12.32;8.65;;;410.30;2355.20;;;;;;5009270;28;20041;-59
2023/09/07 01:31:57;;;;;;;9.98;8.07;;;410.20;2355.20;;;;;;5008807;28;20022;-60
2023/09/07 01:34:24;;;;;;;9.60;8.13;;;410.20;2355.20;;;;;;5009231;28;20535;-59
2023/09/07 01:36:50;;;;;;;10.52;9.07;;;410.20;2355.20;;;;;;4995549;28;20022;-58
2023/09/07 01:39:16;;;;;;;14.00;8.52;;;410.20;2355.20;;;;;;5009071;28;20022;-58
2023/09/07 01:41:43;;;;;;;11.00;9.48;;;410.20;2355.20;;;;;;5008845;28;20026;-59
2023/09/07 01:44:09;;;;;;;11.60;8.48;;;410.20;2355.20;;;;;;5009319;28;20061;-59
2023/09/07 01:46:35;;;;;;;10.82;8.52;;;410.20;2355.20;;;;;;5046488;28;20124;-58
2023/09/07 01:49:02;;;;;;;14.05;9.60;;;410.20;2355.20;;;;;;5091250;28;20484;-58
2023/09/07 01:51:27;;;;;;;14.82;9.38;;;410.10;2355.20;;;;;;5090710;28;20023;-59
2023/09/07 01:53:54;;;;;;;10.32;8.40;;;410.10;2355.20;;;;;;5091033;28;20059;-58
2023/09/07 01:56:19;;;;;;;9.15;8.05;;;410.10;2355.20;;;;;;5091251;28;20027;-59
2023/09/07 01:58:45;;;;;;;11.35;7.95;;;410.20;2355.20;;;;;;5091645;28;20024;-60
2023/09/07 02:01:25;;;;;;;10.65;8.38;;;410.00;2355.20;;;;;;5090498;28;20425;-59
2023/09/07 02:03:51;;;;;;;12.10;9.05;;;410.00;2355.20;;;;;;5090797;28;20024;-59
2023/09/07 02:06:16;;;;;;;10.80;8.10;;;410.10;2355.20;;;;;;5090744;28;20500;-61
2023/09/07 02:08:42;;;;;;;10.38;8.30;;;410.10;2355.20;;;;;;5091497;28;20035;-59
2023/09/07 02:11:08;;;;;;;12.68;9.40;;;410.00;2355.20;;;;;;5090346;28;20044;-60
2023/09/07 02:13:34;;;;;;;11.43;8.80;;;409.80;2355.20;;;;;;5091275;28;20035;-59
2023/09/07 02:16:06;;;;;;;12.13;8.77;;;409.80;2355.20;;;;;;5090662;28;20024;-59
2023/09/07 02:18:33;;;;;;;10.43;9.32;;;409.90;2355.20;;;;;;5091070;28;20024;-59
2023/09/07 02:21:05;;;;;;;11.40;8.57;;;409.90;2355.20;;;;;;5089992;28;20020;-59
2023/09/07 02:23:32;;;;;;;9.55;8.05;;;409.90;2355.20;;;;;;5090859;28;20054;-59
2023/09/07 02:26:01;;;;;;;12.63;9.55;;;409.90;2355.20;;;;;;5090762;28;20016;-60
2023/09/07 02:28:27;;;;;;;14.45;8.90;;;409.90;2355.20;;;;;;5090411;28;20028;-60
2023/09/07 02:30:53;;;;;;;11.73;8.82;;;409.90;2355.20;;;;;;5090532;28;20128;-60
2023/09/07 02:33:19;;;;;;;13.20;9.77;;;409.80;2355.20;;;;;;5090490;28;20463;-60
2023/09/07 02:35:44;;;;;;;11.68;8.38;;;409.80;2355.20;;;;;;5090080;28;20031;-60
2023/09/07 02:38:10;;;;;;;10.43;9.10;;;409.70;2355.20;;;;;;5090768;28;20020;-59
2023/09/07 02:40:44;;;;;;;13.63;8.68;;;409.80;2355.20;;;;;;5090629;28;20468;-60
2023/09/07 02:43:11;;;;;;;11.50;8.45;;;409.90;2355.20;;;;;;5090467;28;20024;-60
2023/09/07 02:45:38;;;;;;;15.45;9.60;;;409.90;2355.20;;;;;;5090246;28;20073;-59
2023/09/07 02:48:04;;;;;;;11.00;9.10;;;409.90;2355.20;;;;;;5090352;28;20359;-60
2023/09/07 02:50:33;;;;;;;11.55;9.00;;;409.90;2355.20;;;;;;5090361;28;20106;-60
2023/09/07 02:53:00;;;;;;;15.38;9.52;;;409.80;2355.20;;;;;;5090200;28;20028;-60
2023/09/07 02:55:26;;;;;;;11.77;8.63;;;409.70;2355.20;;;;;;5081703;28;20115;-60
2023/09/07 02:57:52;;;;;;;15.00;9.25;;;409.80;2355.20;;;;;;5071504;28;20024;-60
2023/09/07 03:00:18;;;;;;;10.10;8.48;;;409.70;2355.20;;;;;;5090065;28;20111;-60
2023/09/07 03:02:44;;;;;;;11.25;9.20;;;409.80;2355.20;;;;;;5089203;28;20486;-60
2023/09/07 03:05:10;;;;;;;13.25;8.85;;;409.70;2355.20;;;;;;5089509;28;20020;-59
2023/09/07 03:07:36;;;;;;;9.68;8.65;;;409.60;2355.20;;;;;;5089291;28;20024;-60
2023/09/07 03:10:02;;;;;;;13.30;10.55;;;409.70;2355.20;;;;;;5089486;28;20016;-60
2023/09/07 03:12:28;;;;;;;12.65;8.95;;;409.60;2355.20;;;;;;5089292;28;20043;-60
2023/09/07 03:14:53;;;;;;;12.73;9.88;;;409.70;2355.20;;;;;;5089776;28;20043;-60
2023/09/07 03:17:20;;;;;;;14.23;9.25;;;409.60;2355.20;;;;;;5089115;28;20103;-60
2023/09/07 03:19:49;;;;;;;11.88;9.35;;;384.90;2329.60;;;;;;5089295;28;20028;-60
2023/09/07 03:22:15;;;;;;;12.60;9.45;;;409.60;2355.20;;;;;;5089247;28;20040;-60
2023/09/07 03:24:41;;;;;;;12.52;8.82;;;384.90;2329.60;;;;;;5089142;28;20020;-59
2023/09/07 03:27:06;;;;;;;13.60;8.93;;;384.90;2329.60;;;;;;5089445;28;20059;-59
2023/09/07 03:29:35;;;;;;;11.52;10.32;;;384.80;2329.60;;;;;;5089422;28;20137;-59
2023/09/07 03:32:01;;;;;;;11.80;9.57;;;384.70;2329.60;;;;;;5089371;28;20028;-59
2023/09/07 03:34:27;;;;;;;13.93;10.85;;;384.60;2329.60;;;;;;5088800;28;20074;-60
2023/09/07 03:36:53;;;;;;;10.00;9.00;;;384.70;2329.60;;;;;;5089308;28;20055;-59
2023/09/07 03:39:21;;;;;;;12.18;9.20;;;384.70;2329.60;;;;;;5089380;28;20103;-59
2023/09/07 03:41:47;;;;;;;8.85;7.75;;;384.70;2329.60;;;;;;5089044;28;20036;-60
2023/09/07 03:44:12;;;;;;;14.45;10.05;;;384.80;2329.60;;;;;;5089319;28;20378;-59
2023/09/07 03:46:38;;;;;;;12.50;9.73;;;384.70;2329.60;;;;;;5088677;28;20028;-60
2023/09/07 03:49:04;;;;;;;10.88;9.05;;;384.90;2329.60;;;;;;5089117;28;20020;-59
2023/09/07 03:51:30;;;;;;;12.45;9.73;;;384.80;2329.60;;;;;;5088846;28;20466;-60
2023/09/07 03:53:56;;;;;;;11.50;9.32;;;384.70;2329.60;;;;;;5089001;28;20017;-59
2023/09/07 03:56:21;;;;;;;12.93;11.13;;;384.80;2329.60;;;;;;5075373;28;20035;-59
2023/09/07 03:58:47;;;;;;;14.68;9.93;;;384.80;2329.60;;;;;;5088563;28;20457;-60
2023/09/07 04:01:13;;;;;;;12.48;9.63;;;384.80;2329.60;;;;;;5088620;28;20107;-59
2023/09/07 04:03:40;;;;;;;10.85;9.60;;;384.90;2329.60;;;;;;5088611;28;20028;-60
2023/09/07 04:06:06;;;;;;;12.57;9.45;;;384.90;2329.60;;;;;;5088847;28;20028;-59
2023/09/07 04:08:32;;;;;;;14.02;10.30;;;384.90;2329.60;;;;;;5077633;28;20106;-60
2023/09/07 04:10:58;;;;;;;14.70;10.23;;;384.90;2329.60;;;;;;5086102;28;20119;-60
2023/09/07 04:13:24;;;;;;;11.77;9.13;;;409.60;2355.20;;;;;;5088741;28;20530;-60
2023/09/07 04:15:50;;;;;;;14.43;9.90;;;409.60;2355.20;;;;;;5088490;28;20016;-60
2023/09/07 04:18:16;;;;;;;11.38;9.70;;;409.70;2355.20;;;;;;5091461;28;20069;-59
2023/09/07 04:20:42;;;;;;;11.45;9.30;;;409.70;2355.20;;;;;;5091151;28;20032;-60
2023/09/07 04:23:08;;;;;;;10.50;9.35;;;409.70;2355.20;;;;;;5093340;28;20024;-61
2023/09/07 04:25:34;;;;;;;11.75;9.98;;;409.80;2355.20;;;;;;5091153;28;20414;-59
2023/09/07 04:28:00;;;;;;;15.65;10.35;;;409.80;2355.20;;;;;;5093158;28;20024;-60
2023/09/07 04:30:26;;;;;;;12.25;8.82;;;409.90;2355.20;;;;;;5092368;28;20020;-59
2023/09/07 04:32:52;;;;;;;11.20;8.90;;;409.90;2355.20;;;;;;5092373;28;20040;-60
2023/09/07 04:35:18;;;;;;;14.48;10.40;;;410.00;2355.20;;;;;;5092499;28;20124;-60
2023/09/07 04:37:45;;;;;;;13.40;9.13;;;410.10;2355.20;;;;;;5092589;28;20103;-59
2023/09/07 04:40:11;;;;;;;11.57;9.50;;;410.20;2355.20;;;;;;5092363;28;20174;-59
2023/09/07 04:42:39;;;;;;;13.48;9.25;;;410.20;2355.20;;;;;;5092405;28;20047;-60
2023/09/07 04:45:05;;;;;;;10.13;8.98;;;410.30;2355.20;;;;;;5092849;28;20108;-60
2023/09/07 04:47:31;;;;;;;12.48;9.50;;;410.30;2355.20;;;;;;5092906;28;20024;-60
2023/09/07 04:49:57;;;;;;;12.88;9.32;;;410.50;2355.20;;;;;;5092000;28;20028;-60
2023/09/07 04:52:23;;;;;;;12.68;8.98;;;410.50;2355.20;;;;;;5092514;28;20077;-61
2023/09/07 04:54:49;;;;;;;13.80;8.70;;;435.20;2355.20;;;;;;5092463;28;20035;-60
2023/09/07 04:57:20;;;;;;;9.75;8.82;;;435.30;2355.20;;;;;;5092721;28;20690;-59
2023/09/07 04:59:45;;;;;;;11.68;8.38;;;435.40;2355.20;;;;;;5091970;28;20024;-60
2023/09/07 05:02:12;;;;;;;12.13;9.32;;;435.70;2355.20;;;;;;5092271;28;20470;-59
2023/09/07 05:04:38;;;;;;;11.60;9.13;;;435.80;2355.20;;;;;;5092349;28;20027;-60
2023/09/07 05:07:03;;;;;;;11.57;9.70;;;436.00;2355.20;;;;;;5092425;28;20029;-60
2023/09/07 05:09:29;;;;;;;10.15;9.05;;;460.90;2380.80;;;;;;5091708;28;20415;-60
2023/09/07 05:11:56;;;;;;;11.95;8.43;;;461.30;2380.80;;;;;;5091745;28;20094;-60
2023/09/07 05:14:25;;;;;;;11.43;9.40;;;461.50;2380.80;;;;;;5092332;28;20063;-59
2023/09/07 05:16:51;;;;;;;12.00;9.07;;;461.70;2380.80;;;;;;5092290;28;20058;-60
2023/09/07 05:19:16;;;;;;;12.52;9.40;;;461.70;2380.80;;;;;;5091157;28;20024;-61
2023/09/07 05:21:42;;;;;;;9.05;7.43;;;461.50;2380.80;;;;;;5091956;28;20060;-60
2023/09/07 05:24:08;;;;;;;14.30;8.23;;;486.50;2380.80;;;;;;5091702;28;20051;-60
2023/09/07 05:26:34;;;;;;;12.88;7.38;;;486.60;2380.80;;;;;;5092093;28;20032;-60
2023/09/07 05:28:59;;;;;;;10.13;7.93;;;486.80;2380.80;;;;;;5090778;28;20020;-60
2023/09/07 05:31:25;;;;;;;10.13;8.45;;;512.30;2380.80;;;;;;5092058;28;20459;-60
2023/09/07 05:33:51;;;;;;;12.23;8.18;;;512.40;2380.80;;;;;;5091301;28;20393;-60
2023/09/07 05:36:17;;;;;;;14.23;9.02;;;512.90;2380.80;;;;;;5091354;28;20065;-60
2023/09/07 05:38:43;;;;;;;11.32;8.40;;;512.90;2380.80;;;;;;5091420;28;20393;-58
2023/09/07 05:41:09;;;;;;;9.88;7.35;;;563.40;2432.00;;;;;;5091190;28;20080;-60
2023/09/07 05:43:35;;;;;;;8.75;7.75;;;589.20;2432.00;;;;;;5091579;28;20074;-60
2023/09/07 05:46:00;;;;;;;8.52;7.63;;;589.10;2432.00;;;;;;5091249;28;20485;-60
2023/09/07 05:48:26;;;;;;;9.73;7.70;;;588.90;2432.00;;;;;;5091275;28;20028;-60
2023/09/07 05:50:52;;;;;;;9.55;7.85;;;564.10;2432.00;;;;;;5089814;28;20375;-60
2023/09/07 05:53:20;;;;;;;9.88;8.60;;;588.80;2432.00;;;;;;5091589;28;20038;-60
2023/09/07 05:55:46;;;;;;;13.52;9.18;;;589.00;2432.00;;;;;;5089606;28;20024;-60
2023/09/07 05:58:12;;;;;;;9.82;8.35;;;563.80;2432.00;;;;;;5090779;28;20032;-60
2023/09/07 06:00:39;;;;;;;9.63;8.63;;;589.30;2432.00;;;;;;5091272;28;20027;-60
2023/09/07 06:03:06;;;;;;;9.07;8.18;;;640.50;2406.40;;;;;;5091108;28;20043;-60
2023/09/07 06:05:33;;;;;;;9.73;7.70;;;691.80;2176.00;;;;;;5091453;28;20411;-60
2023/09/07 06:07:59;;;;;;;8.63;7.63;;;743.10;1996.80;;;;;;5090599;28;20026;-59
2023/09/07 06:10:30;;;;;;;9.20;8.32;;;793.70;1843.20;;;;;;5089168;28;20406;-61
2023/09/07 06:12:57;;;;;;;8.80;8.00;;;794.00;1792.00;;;;;;5090092;28;20032;-60
2023/09/07 06:15:23;;;;;;;12.00;8.93;;;794.20;1766.40;;;;;;5090627;28;20493;-58
2023/09/07 06:17:49;;;;;;;29.88;11.00;;;819.30;1740.80;;;;;;5090786;28;20016;-60
2023/09/07 06:20:16;;;;;;;10.05;8.90;;;819.30;1740.80;;;;;;5090658;28;20107;-60
2023/09/07 06:22:41;;;;;;;10.15;9.15;;;844.80;1664.00;;;;;;5090078;28;20048;-59
2023/09/07 06:25:07;;;;;;;13.10;11.60;;;870.60;1612.80;;;;;;5090668;28;20028;-60
2023/09/07 06:27:33;;;;;;;13.40;12.02;;;896.90;1510.40;;;;;;5089161;28;20111;-60
2023/09/07 06:29:59;;;;;;;29.63;26.65;;;947.30;1433.60;;;;;;5089851;28;20131;-61
2023/09/07 06:32:24;;;;;;;22.10;20.00;;;948.10;1408.00;;;;;;5090406;28;20050;-61
2023/09/07 06:34:50;;;;;;;11.82;10.55;;;947.30;1408.00;;;;;;5090203;28;20385;-60
2023/09/07 06:37:17;;;;;;;12.25;8.85;;;921.90;1459.20;;;;;;5090104;28;20384;-61
2023/09/07 06:39:43;;;;;;;12.32;9.95;;;896.80;1433.60;;;;;;5090612;28;20115;-61
2023/09/07 06:42:10;;;;;;;11.63;10.43;;;921.80;1459.20;;;;;;5083341;28;20119;-61
2023/09/07 06:44:36;;;;;;;10.55;9.50;;;973.20;1356.80;;;;;;5082748;28;20020;-64
2023/09/07 06:47:02;;;;;;;17.08;11.05;;;922.50;1382.40;;;;;;5089908;28;20016;-64
2023/09/07 06:49:29;;;;;;;12.00;10.82;;;947.60;1356.80;;;;;;5089909;28;20108;-64
2023/09/07 06:51:56;;;;;;;19.15;17.35;;;973.70;1305.60;;;;;;5074042;28;20035;-66
2023/09/07 06:54:22;;;;;;;17.00;15.50;;;973.60;1305.60;;;;;;5090127;28;20051;-64
2023/09/07 06:56:48;;;;;;;12.55;11.35;;;973.70;1280.00;;;;;;5090152;28;20035;-63
2023/09/07 06:59:14;;;;;;;12.25;11.25;;;1024.70;1203.20;;;;;;5090178;28;20016;-63
2023/09/07 07:01:40;;;;;;;11.55;10.55;;;1024.50;1203.20;;;;;;5087915;28;20051;-64
2023/09/07 07:04:06;;;;;;;12.43;11.30;;;1075.40;1177.60;;;;;;5089999;28;20486;-65
2023/09/07 07:06:32;;;;;;;12.50;11.30;;;1050.30;1177.60;;;;;;5074362;28;20024;-63
2023/09/07 07:08:57;;;;;;;14.00;12.63;;;1075.60;1152.00;;;;;;5069524;28;20489;-64
2023/09/07 07:11:23;;;;;;;12.35;11.23;;;1024.70;1177.60;;;;;;5084251;28;20044;-64
2023/09/07 07:13:49;;;;;;;13.30;12.00;;;1049.60;1203.20;;;;;;5089585;28;20378;-64
2023/09/07 07:16:16;;;;;;;12.00;11.00;;;1050.00;1177.60;;;;;;5089423;28;20066;-65
2023/09/07 07:18:42;;;;;;;13.50;12.35;;;1075.30;1152.00;;;;;;5077871;28;20093;-64
2023/09/07 07:21:09;;;;;;;13.90;12.82;;;1049.80;1177.60;;;;;;5069306;28;20474;-64
2023/09/07 07:23:35;;;;;;;13.82;12.52;;;999.20;1203.20;;;;;;5069633;28;20028;-65
2023/09/07 07:26:00;;;;;;;17.08;12.68;;;1075.20;1152.00;;;;;;5069323;28;20411;-63
2023/09/07 07:28:26;;;;;;;13.65;12.35;;;999.00;1228.80;;;;;;5082268;28;20063;-64
2023/09/07 07:30:53;;;;;;;14.98;13.48;;;1050.30;1177.60;;;;;;5089725;28;20446;-64
2023/09/07 07:33:20;;;;;;;19.98;14.40;;;1050.00;1152.00;;;;;;5089396;28;20016;-64
2023/09/07 07:35:45;;;;;;;16.15;14.68;;;1050.30;1177.60;;;;;;5075317;28;20489;-65
2023/09/07 07:38:13;;;;;;;13.45;12.30;;;1024.70;1177.60;;;;;;5089313;28;20024;-65
2023/09/07 07:40:39;;;;;;;17.00;14.48;;;998.60;1254.40;;;;;;5072997;28;20024;-64
2023/09/07 07:43:06;;;;;;;15.50;14.10;;;999.30;1228.80;;;;;;5067107;28;20040;-65
2023/09/07 07:45:36;;;;;;;13.82;12.32;;;998.50;1254.40;;;;;;5083464;28;20066;-65
2023/09/07 07:48:02;;;;;;;15.82;13.98;;;998.90;1228.80;;;;;;5088787;28;20474;-65
2023/09/07 07:50:28;;;;;;;16.70;13.25;;;998.80;1228.80;;;;;;5068799;28;20052;-64
2023/09/07 07:52:53;;;;;;;15.70;14.18;;;998.80;1228.80;;;;;;5068695;28;20387;-65
2023/09/07 07:55:19;;;;;;;16.00;13.82;;;999.10;1228.80;;;;;;5068990;28;20035;-65
2023/09/07 07:57:45;;;;;;;18.08;14.32;;;973.40;1254.40;;;;;;5068408;28;20044;-65
2023/09/07 08:00:11;;;;;;;17.20;15.40;;;972.80;1305.60;;;;;;5069028;28;20088;-66
2023/09/07 08:02:37;;;;;;;16.35;14.02;;;973.70;1228.80;;;;;;5068681;28;20075;-66
2023/09/07 08:05:04;;;;;;;18.15;15.55;;;948.10;1254.40;;;;;;5068965;28;20060;-65
2023/09/07 08:07:29;;;;;;;15.80;14.40;;;973.30;1280.00;;;;;;5068675;28;20024;-66
2023/09/07 08:09:55;;;;;;;17.08;15.38;;;999.00;1228.80;;;;;;5076704;28;20043;-64
2023/09/07 08:12:21;;;;;;;16.30;14.15;;;1024.30;1228.80;;;;;;5088807;28;20051;-66
2023/09/07 08:14:48;;;;;;;15.50;11.98;;;998.80;1228.80;;;;;;5088632;28;20406;-66
2023/09/07 08:17:13;;;;;;;11.10;10.07;;;972.90;1254.40;;;;;;5076020;28;20124;-65
2023/09/07 08:19:39;;;;;;;14.48;12.30;;;896.80;1305.60;;;;;;5088040;28;20016;-68
2023/09/07 08:22:06;;;;;;;11.23;10.38;;;922.50;1280.00;;;;;;5068886;28;20075;-65
2023/09/07 08:24:32;;;;;;;13.23;10.98;;;896.70;1331.20;;;;;;5088143;28;20016;-64
2023/09/07 08:26:59;;;;;;;14.40;11.45;;;922.10;1305.60;;;;;;5068418;28;20040;-66
2023/09/07 08:29:26;;;;;;;14.77;12.68;;;921.80;1331.20;;;;;;5067568;28;20036;-65
2023/09/07 08:31:53;;;;;;;14.77;12.63;;;947.70;1280.00;;;;;;5068631;28;20025;-64
2023/09/07 08:34:20;;;;;;;16.05;12.88;;;973.60;1254.40;;;;;;5068116;28;20035;-64
2023/09/07 08:36:49;;;;;;;15.05;12.18;;;973.40;1254.40;;;;;;5068880;28;20066;-65
2023/09/07 08:39:16;;;;;;;10.93;9.93;;;998.90;1228.80;;;;;;5080321;28;20055;-65
2023/09/07 08:41:43;;;;;;;12.45;10.95;;;947.70;1280.00;;;;;;5088222;28;20035;-64
2023/09/07 08:44:19;;;;;;;11.80;10.80;;;922.10;1305.60;;;;;;5088485;28;20059;-64
2023/09/07 08:46:47;;;;;;;12.65;11.57;;;922.00;1305.60;;;;;;5088550;28;20012;-64
2023/09/07 08:49:13;;;;;;;13.13;10.95;;;;;;;;;;5088413;28;20485;-64
2023/09/07 08:51:39;;;;;;;9.68;8.77;;;870.90;1408.00;;;;;;5087795;28;20023;-65
2023/09/07 08:54:07;;;;;;;9.15;8.02;;;845.00;1459.20;;;;;;5087482;28;20032;-63
2023/09/07 08:56:33;;;;;;;9.52;8.48;;;819.60;1484.80;;;;;;5088697;28;20378;-64
2023/09/07 08:58:58;;;;;;;14.57;9.48;;;794.10;1536.00;;;;;;5088682;28;20500;-63
2023/09/07 09:01:24;;;;;;;12.10;8.68;;;794.00;1536.00;;;;;;5088599;28;20111;-63
2023/09/07 09:03:51;;;;;;;9.18;8.00;;;768.80;1561.60;;;;;;5088187;28;20107;-62
2023/09/07 09:06:22;;;;;;;10.23;8.07;;;793.60;1587.20;;;;;;5084449;28;20025;-65
2023/09/07 09:08:55;;;;;;;9.63;7.82;;;768.60;1561.60;;;;;;5086906;28;20077;-65
2023/09/07 09:11:22;;;;;;;10.52;8.27;;;743.30;1612.80;;;;;;5091772;28;20041;-63
2023/09/07 09:13:50;;;;;;;9.02;8.13;;;742.60;1664.00;;;;;;5092149;28;20122;-64
2023/09/07 09:16:18;;;;;;;11.48;8.57;;;742.40;1664.00;;;;;;5092094;28;20478;-63
2023/09/07 09:18:54;;;;;;;12.93;8.07;;;742.60;1664.00;;;;;;5091782;28;20093;-64
2023/09/07 09:21:22;;;;;;;9.57;7.63;;;742.90;1612.80;;;;;;5091507;28;20031;-63
2023/09/07 09:23:50;;;;;;;16.75;8.50;;;768.10;1612.80;;;;;;5085171;28;20016;-64
2023/09/07 09:26:16;;;;;;;13.95;9.55;;;768.10;1612.80;;;;;;5071389;28;20024;-63
2023/09/07 09:28:44;;;;;;;9.40;8.10;;;768.10;1638.40;;;;;;5071675;28;20031;-62
2023/09/07 09:31:12;;;;;;;10.45;8.35;;;743.00;1638.40;;;;;;5070794;28;20028;-64
2023/09/07 09:33:39;;;;;;;10.05;7.22;;;743.10;1689.60;;;;;;5081170;28;20108;-64
2023/09/07 09:36:06;;;;;;;15.23;9.32;;;742.90;1689.60;;;;;;5073803;28;20023;-63
2023/09/07 09:38:33;;;;;;;9.88;7.97;;;742.90;1664.00;;;;;;5081577;28;20040;-64
2023/09/07 09:40:59;;;;;;;13.48;8.52;;;742.50;1689.60;;;;;;5090881;28;20074;-62
2023/09/07 09:43:26;;;;;;;10.30;8.90;;;742.80;1664.00;;;;;;5091559;28;20089;-62
2023/09/07 09:45:52;;;;;;;8.65;7.63;;;742.80;1664.00;;;;;;5091189;28;20020;-63
2023/09/07 09:48:22;;;;;;;10.20;7.22;;;742.50;1689.60;;;;;;5091600;28;20035;-64
2023/09/07 09:50:48;;;;;;;10.48;7.70;;;742.90;1689.60;;;;;;5090820;28;20072;-64
2023/09/07 09:53:18;;;;;;;12.65;7.70;;;742.40;1715.20;;;;;;5079770;28;20028;-63
2023/09/07 09:55:46;;;;;;;13.65;8.38;;;742.80;1715.20;;;;;;5089923;28;20016;-63
2023/09/07 09:58:13;;;;;;;12.80;8.07;;;717.70;1689.60;;;;;;5091493;28;20061;-61
2023/09/07 10:00:48;;;;;;;10.30;7.38;;;717.70;1689.60;;;;;;5091106;28;20020;-61
2023/09/07 10:03:16;;;;;;;12.80;7.80;;;742.40;1740.80;;;;;;5090862;28;20055;-61
2023/09/07 10:05:46;;;;;;;9.07;7.53;;;742.40;1740.80;;;;;;5090985;28;20026;-62
2023/09/07 10:08:13;;;;;;;9.57;7.05;;;742.40;1766.40;;;;;;5090806;28;20031;-61
2023/09/07 10:10:41;;;;;;;10.73;7.43;;;742.40;1740.80;;;;;;5090370;28;20032;-61
2023/09/07 10:13:07;;;;;;;10.27;7.47;;;742.40;1740.80;;;;;;5090841;28;20051;-62
2023/09/07 10:15:33;;;;;;;12.98;7.63;;;742.50;1740.80;;;;;;5090601;28;20458;-61
2023/09/07 10:18:16;;;;;;;9.30;7.85;;;717.50;1715.20;;;;;;5090504;28;20936;-62
2023/09/07 10:20:55;;;;;;;10.32;7.22;;;717.50;1715.20;;;;;;5090651;28;20078;-62
2023/09/07 10:23:23;;;;;;;9.23;7.53;;;717.60;1715.20;;;;;;5090390;28;20383;-62
2023/09/07 10:25:53;;;;;;;12.00;7.43;;;717.30;1740.80;;;;;;5090262;28;20412;-61
2023/09/07 10:28:23;;;;;;;12.02;8.43;;;717.60;1715.20;;;;;;5090353;28;20028;-62
2023/09/07 10:31:14;;;;;;;12.07;7.32;;;717.60;1715.20;;;;;;5090061;28;20020;-61
2023/09/07 10:33:41;;;;;;;9.23;6.80;;;742.40;1740.80;;;;;;5089822;28;20370;-61
2023/09/07 10:36:06;;;;;;;11.68;7.00;;;717.60;1689.60;;;;;;5076856;28;20034;-61
2023/09/07 10:38:33;;;;;;;10.95;7.43;;;742.40;1715.20;;;;;;5090318;28;20482;-61
2023/09/07 10:41:02;;;;;;;8.25;6.85;;;742.40;1740.80;;;;;;5089973;28;20036;-61
2023/09/07 10:43:33;;;;;;;7.47;6.60;;;717.10;1715.20;;;;;;5089095;28;20428;-62
2023/09/07 10:46:00;;;;;;;8.77;6.07;;;717.50;1715.20;;;;;;5068900;28;20784;-61
2023/09/07 10:48:29;;;;;;;13.63;6.90;;;742.40;1689.60;;;;;;5069315;28;20029;-61
2023/09/07 10:50:56;;;;;;;10.27;6.68;;;742.40;1715.20;;;;;;5083555;28;20023;-61
2023/09/07 10:53:32;;;;;;;12.65;6.45;;;717.50;1715.20;;;;;;5088849;28;20466;-63
2023/09/07 10:56:04;;;;;;;10.88;6.97;;;717.20;1689.60;;;;;;5089891;28;20027;-62
2023/09/07 10:58:30;;;;;;;8.30;7.07;;;717.50;1689.60;;;;;;5089747;28;20083;-61
2023/09/07 11:00:57;;;;;;;8.40;6.72;;;717.20;1664.00;;;;;;5089947;28;20520;-62
2023/09/07 11:03:26;;;;;;;8.57;6.30;;;717.40;1664.00;;;;;;5089918;28;20067;-62
2023/09/07 11:05:58;;;;;;;11.43;7.15;;;717.50;1664.00;;;;;;5073131;28;20020;-62
2023/09/07 11:08:24;;;;;;;10.13;6.40;;;717.50;1664.00;;;;;;5079938;28;20028;-61
2023/09/07 11:10:51;;;;;;;9.73;6.15;;;717.50;1664.00;;;;;;5089098;28;20501;-62
2023/09/07 11:13:17;;;;;;;8.65;6.82;;;717.60;1664.00;;;;;;5089615;28;20024;-62
2023/09/07 11:15:43;;;;;;;8.50;5.88;;;717.70;1638.40;;;;;;5089480;28;20367;-62
2023/09/07 11:18:09;;;;;;;8.27;6.85;;;717.60;1638.40;;;;;;5063150;28;20103;-62
2023/09/07 11:20:36;;;;;;;7.82;6.25;;;717.70;1638.40;;;;;;5089331;28;20070;-62
2023/09/07 11:23:02;;;;;;;11.45;6.72;;;717.70;1664.00;;;;;;5055570;28;20032;-61
2023/09/07 11:25:38;;;;;;;9.35;6.60;;;742.80;1689.60;;;;;;5082564;28;20147;-63
2023/09/07 11:28:08;;;;;;;6.72;6.03;;;742.50;1664.00;;;;;;5089082;28;20028;-62
2023/09/07 11:30:34;;;;;;;9.15;6.63;;;742.40;1664.00;;;;;;5089665;28;20028;-61
2023/09/07 11:33:05;;;;;;;8.55;6.72;;;742.40;1664.00;;;;;;5089673;28;20076;-62
2023/09/07 11:35:31;;;;;;;10.00;7.00;;;742.50;1638.40;;;;;;5069848;28;20028;-62
2023/09/07 11:37:56;;;;;;;7.22;6.45;;;717.40;1638.40;;;;;;5086561;28;20449;-61
2023/09/07 11:40:22;;;;;;;9.57;6.60;;;717.70;1664.00;;;;;;5089127;28;20111;-62
2023/09/07 11:42:48;;;;;;;8.63;6.88;;;717.70;1638.40;;;;;;5088747;28;20089;-61
2023/09/07 11:45:15;;;;;;;7.95;6.30;;;717.70;1664.00;;;;;;5089438;28;20053;-62
2023/09/07 11:47:41;;;;;;;13.18;7.55;;;717.70;1638.40;;;;;;5088712;28;20048;-62
2023/09/07 11:50:07;;;;;;;10.27;6.57;;;717.60;1664.00;;;;;;5089148;28;20501;-62
2023/09/07 11:52:33;;;;;;;9.10;7.18;;;717.40;1664.00;;;;;;5089159;28;20023;-62
2023/09/07 11:54:59;;;;;;;17.80;7.82;;;717.20;1689.60;;;;;;5089017;28;20482;-61
2023/09/07 11:57:24;;;;;;;15.18;7.57;;;717.40;1689.60;;;;;;5089029;28;20020;-61
2023/09/07 11:59:50;;;;;;;7.60;6.80;;;717.50;1689.60;;;;;;5088619;28;20108;-61
2023/09/07 12:02:17;;;;;;;8.93;6.10;;;717.40;1689.60;;;;;;5088828;28;20385;-61
2023/09/07 12:04:43;;;;;;;9.88;6.88;;;717.30;1689.60;;;;;;5088689;28;20501;-61
2023/09/07 12:07:10;;;;;;;8.13;7.32;;;716.80;1715.20;;;;;;5089019;28;20508;-62